sensor_id;sensor_type;location;lat;lon;timestamp;pressure;altitude;pressure_sealevel;temperature
47484;BMP280;54076;50.322;18.650;2023-04-25T00:03:50;96889.77;;;6.53
47484;BMP280;54076;50.322;18.650;2023-04-25T00:08:52;96885.88;;;6.39
47484;BMP280;54076;50.322;18.650;2023-04-25T00:13:54;96884.14;;;6.39
47484;BMP280;54076;50.322;18.650;2023-04-25T00:18:55;96883.64;;;6.37
47484;BMP280;54076;50.322;18.650;2023-04-25T00:23:56;96878.95;;;6.39
47484;BMP280;54076;50.322;18.650;2023-04-25T00:28:57;96874.44;;;6.35
47484;BMP280;54076;50.322;18.650;2023-04-25T00:33:58;96872.27;;;6.21
47484;BMP280;54076;50.322;18.650;2023-04-25T00:38:59;96885.18;;;6.06
47484;BMP280;54076;50.322;18.650;2023-04-25T00:44:01;96881.05;;;6.10
47484;BMP280;54076;50.322;18.650;2023-04-25T00:49:03;96885.61;;;5.96
47484;BMP280;54076;50.322;18.650;2023-04-25T00:54:04;96883.33;;;5.96
47484;BMP280;54076;50.322;18.650;2023-04-25T00:59:06;96880.64;;;5.91
47484;BMP280;54076;50.322;18.650;2023-04-25T01:04:07;96880.29;;;5.84
47484;BMP280;54076;50.322;18.650;2023-04-25T01:09:08;96886.27;;;5.75
47484;BMP280;54076;50.322;18.650;2023-04-25T01:14:09;96883.73;;;5.72
47484;BMP280;54076;50.322;18.650;2023-04-25T01:19:10;96881.34;;;5.70
47484;BMP280;54076;50.322;18.650;2023-04-25T01:24:14;96886.64;;;5.62
47484;BMP280;54076;50.322;18.650;2023-04-25T01:29:20;96895.02;;;5.57
47484;BMP280;54076;50.322;18.650;2023-04-25T01:34:21;96894.14;;;5.43
47484;BMP280;54076;50.322;18.650;2023-04-25T01:39:22;96898.34;;;5.36
47484;BMP280;54076;50.322;18.650;2023-04-25T01:44:24;96904.74;;;5.44
47484;BMP280;54076;50.322;18.650;2023-04-25T01:49:25;96904.69;;;5.37
47484;BMP280;54076;50.322;18.650;2023-04-25T01:54:26;96908.05;;;5.33
47484;BMP280;54076;50.322;18.650;2023-04-25T01:59:27;96910.77;;;5.25
47484;BMP280;54076;50.322;18.650;2023-04-25T02:04:28;96915.75;;;5.16
47484;BMP280;54076;50.322;18.650;2023-04-25T02:09:30;96921.13;;;5.16
47484;BMP280;54076;50.322;18.650;2023-04-25T02:14:31;96917.95;;;5.15
47484;BMP280;54076;50.322;18.650;2023-04-25T02:19:32;96918.35;;;5.06
47484;BMP280;54076;50.322;18.650;2023-04-25T02:24:33;96920.20;;;5.07
47484;BMP280;54076;50.322;18.650;2023-04-25T02:29:35;96920.31;;;5.02
47484;BMP280;54076;50.322;18.650;2023-04-25T02:34:36;96923.23;;;4.95
47484;BMP280;54076;50.322;18.650;2023-04-25T02:39:38;96917.87;;;4.96
47484;BMP280;54076;50.322;18.650;2023-04-25T02:44:39;96919.00;;;4.88
47484;BMP280;54076;50.322;18.650;2023-04-25T02:49:40;96920.59;;;4.86
47484;BMP280;54076;50.322;18.650;2023-04-25T02:54:41;96919.49;;;4.90
47484;BMP280;54076;50.322;18.650;2023-04-25T02:59:42;96916.87;;;4.91
47484;BMP280;54076;50.322;18.650;2023-04-25T03:04:43;96919.88;;;4.74
47484;BMP280;54076;50.322;18.650;2023-04-25T03:09:44;96913.80;;;4.74
47484;BMP280;54076;50.322;18.650;2023-04-25T03:14:45;96912.42;;;4.67
47484;BMP280;54076;50.322;18.650;2023-04-25T03:19:46;96910.46;;;4.73
47484;BMP280;54076;50.322;18.650;2023-04-25T03:24:47;96917.26;;;4.71
47484;BMP280;54076;50.322;18.650;2023-04-25T03:29:48;96924.05;;;4.65
47484;BMP280;54076;50.322;18.650;2023-04-25T03:34:49;96923.48;;;4.60
47484;BMP280;54076;50.322;18.650;2023-04-25T03:39:50;96922.64;;;4.66
47484;BMP280;54076;50.322;18.650;2023-04-25T03:44:51;96918.45;;;4.51
47484;BMP280;54076;50.322;18.650;2023-04-25T03:49:52;96921.12;;;4.53
47484;BMP280;54076;50.322;18.650;2023-04-25T03:54:53;96926.06;;;4.53
47484;BMP280;54076;50.322;18.650;2023-04-25T03:59:54;96928.67;;;4.52
47484;BMP280;54076;50.322;18.650;2023-04-25T04:04:55;96928.63;;;4.45
47484;BMP280;54076;50.322;18.650;2023-04-25T04:09:57;96927.71;;;4.52
47484;BMP280;54076;50.322;18.650;2023-04-25T04:14:58;96933.17;;;4.59
47484;BMP280;54076;50.322;18.650;2023-04-25T04:19:59;96936.20;;;4.63
47484;BMP280;54076;50.322;18.650;2023-04-25T04:25:00;96932.98;;;4.86
47484;BMP280;54076;50.322;18.650;2023-04-25T04:30:01;96938.66;;;4.69
47484;BMP280;54076;50.322;18.650;2023-04-25T04:35:04;96943.45;;;4.69
47484;BMP280;54076;50.322;18.650;2023-04-25T04:40:07;96948.37;;;4.55
47484;BMP280;54076;50.322;18.650;2023-04-25T04:45:10;96947.05;;;4.64
47484;BMP280;54076;50.322;18.650;2023-04-25T04:50:11;96944.27;;;4.77
47484;BMP280;54076;50.322;18.650;2023-04-25T04:55:12;96947.66;;;4.67
47484;BMP280;54076;50.322;18.650;2023-04-25T05:00:13;96950.52;;;4.79
47484;BMP280;54076;50.322;18.650;2023-04-25T05:05:16;96947.71;;;4.91
47484;BMP280;54076;50.322;18.650;2023-04-25T05:10:18;96945.80;;;4.71
47484;BMP280;54076;50.322;18.650;2023-04-25T05:15:20;96944.32;;;4.82
47484;BMP280;54076;50.322;18.650;2023-04-25T05:20:21;96948.16;;;4.72
47484;BMP280;54076;50.322;18.650;2023-04-25T05:25:22;96946.46;;;4.77
47484;BMP280;54076;50.322;18.650;2023-04-25T05:30:23;96950.45;;;4.68
47484;BMP280;54076;50.322;18.650;2023-04-25T05:35:24;96952.05;;;4.76
47484;BMP280;54076;50.322;18.650;2023-04-25T05:40:25;96953.58;;;4.74
47484;BMP280;54076;50.322;18.650;2023-04-25T05:45:26;96955.96;;;4.80
47484;BMP280;54076;50.322;18.650;2023-04-25T05:50:27;96964.31;;;4.98
47484;BMP280;54076;50.322;18.650;2023-04-25T05:55:28;96961.00;;;4.96
47484;BMP280;54076;50.322;18.650;2023-04-25T06:00:29;96962.10;;;4.94
47484;BMP280;54076;50.322;18.650;2023-04-25T06:05:30;96961.17;;;4.92
47484;BMP280;54076;50.322;18.650;2023-04-25T06:10:31;96959.33;;;4.77
47484;BMP280;54076;50.322;18.650;2023-04-25T06:15:32;96961.86;;;4.95
47484;BMP280;54076;50.322;18.650;2023-04-25T06:20:33;96962.96;;;5.07
47484;BMP280;54076;50.322;18.650;2023-04-25T06:25:34;96964.34;;;5.14
47484;BMP280;54076;50.322;18.650;2023-04-25T06:30:35;96964.98;;;5.25
47484;BMP280;54076;50.322;18.650;2023-04-25T06:35:36;96965.15;;;5.27
47484;BMP280;54076;50.322;18.650;2023-04-25T06:40:37;96970.80;;;5.34
47484;BMP280;54076;50.322;18.650;2023-04-25T06:45:38;96970.81;;;5.24
47484;BMP280;54076;50.322;18.650;2023-04-25T06:50:39;96971.56;;;5.43
47484;BMP280;54076;50.322;18.650;2023-04-25T06:55:40;96975.61;;;5.44
47484;BMP280;54076;50.322;18.650;2023-04-25T07:00:41;96972.67;;;5.52
47484;BMP280;54076;50.322;18.650;2023-04-25T07:05:42;96966.45;;;5.63
47484;BMP280;54076;50.322;18.650;2023-04-25T07:10:43;96961.30;;;5.81
47484;BMP280;54076;50.322;18.650;2023-04-25T07:15:46;96965.30;;;5.64
47484;BMP280;54076;50.322;18.650;2023-04-25T07:20:48;96958.97;;;5.99
47484;BMP280;54076;50.322;18.650;2023-04-25T07:25:49;96962.77;;;5.87
47484;BMP280;54076;50.322;18.650;2023-04-25T07:30:50;96970.42;;;5.68
47484;BMP280;54076;50.322;18.650;2023-04-25T07:35:52;96970.31;;;5.94
47484;BMP280;54076;50.322;18.650;2023-04-25T07:40:53;96969.09;;;6.20
47484;BMP280;54076;50.322;18.650;2023-04-25T07:45:54;96969.23;;;6.19
47484;BMP280;54076;50.322;18.650;2023-04-25T07:50:55;96965.02;;;6.29
47484;BMP280;54076;50.322;18.650;2023-04-25T07:55:56;96970.75;;;6.16
47484;BMP280;54076;50.322;18.650;2023-04-25T08:00:57;96974.17;;;6.45
47484;BMP280;54076;50.322;18.650;2023-04-25T08:05:58;96968.48;;;6.57
47484;BMP280;54076;50.322;18.650;2023-04-25T08:10:59;96977.09;;;6.67
47484;BMP280;54076;50.322;18.650;2023-04-25T08:16:00;96970.05;;;6.65
47484;BMP280;54076;50.322;18.650;2023-04-25T08:21:01;96969.27;;;6.73
47484;BMP280;54076;50.322;18.650;2023-04-25T08:26:02;96968.42;;;6.81
47484;BMP280;54076;50.322;18.650;2023-04-25T08:31:04;96965.14;;;6.95
47484;BMP280;54076;50.322;18.650;2023-04-25T08:36:05;96974.75;;;7.17
47484;BMP280;54076;50.322;18.650;2023-04-25T08:41:06;96970.69;;;7.20
47484;BMP280;54076;50.322;18.650;2023-04-25T08:46:07;96972.78;;;7.24
47484;BMP280;54076;50.322;18.650;2023-04-25T08:51:09;96976.94;;;7.46
47484;BMP280;54076;50.322;18.650;2023-04-25T08:56:12;96981.75;;;7.41
47484;BMP280;54076;50.322;18.650;2023-04-25T09:01:13;96978.48;;;7.36
47484;BMP280;54076;50.322;18.650;2023-04-25T09:06:15;96980.98;;;7.59
47484;BMP280;54076;50.322;18.650;2023-04-25T09:11:17;96980.63;;;7.59
47484;BMP280;54076;50.322;18.650;2023-04-25T09:16:18;96993.33;;;7.57
47484;BMP280;54076;50.322;18.650;2023-04-25T09:21:22;96986.78;;;7.46
47484;BMP280;54076;50.322;18.650;2023-04-25T09:26:23;96979.89;;;8.06
47484;BMP280;54076;50.322;18.650;2023-04-25T09:31:26;96982.89;;;7.94
47484;BMP280;54076;50.322;18.650;2023-04-25T09:36:30;96980.05;;;8.05
47484;BMP280;54076;50.322;18.650;2023-04-25T09:41:31;96982.05;;;8.08
47484;BMP280;54076;50.322;18.650;2023-04-25T09:46:34;96987.66;;;7.81
47484;BMP280;54076;50.322;18.650;2023-04-25T09:51:38;96986.65;;;7.92
47484;BMP280;54076;50.322;18.650;2023-04-25T09:56:39;96983.60;;;7.46
47484;BMP280;54076;50.322;18.650;2023-04-25T10:01:42;96991.21;;;7.60
47484;BMP280;54076;50.322;18.650;2023-04-25T10:06:44;96978.75;;;7.64
47484;BMP280;54076;50.322;18.650;2023-04-25T10:11:47;96981.95;;;8.08
47484;BMP280;54076;50.322;18.650;2023-04-25T10:16:53;96979.99;;;7.56
47484;BMP280;54076;50.322;18.650;2023-04-25T10:22:17;96986.29;;;7.81
47484;BMP280;54076;50.322;18.650;2023-04-25T10:27:19;96984.46;;;7.59
47484;BMP280;54076;50.322;18.650;2023-04-25T10:32:20;96994.55;;;7.81
47484;BMP280;54076;50.322;18.650;2023-04-25T10:37:21;96984.14;;;7.95
47484;BMP280;54076;50.322;18.650;2023-04-25T10:42:22;96974.09;;;7.84
47484;BMP280;54076;50.322;18.650;2023-04-25T10:47:43;96973.05;;;7.85
47484;BMP280;54076;50.322;18.650;2023-04-25T10:52:45;96980.58;;;7.92
47484;BMP280;54076;50.322;18.650;2023-04-25T10:57:46;96977.80;;;7.79
47484;BMP280;54076;50.322;18.650;2023-04-25T11:02:58;96976.25;;;7.92
47484;BMP280;54076;50.322;18.650;2023-04-25T11:07:59;96970.95;;;8.19
47484;BMP280;54076;50.322;18.650;2023-04-25T11:13:01;96968.53;;;7.94
47484;BMP280;54076;50.322;18.650;2023-04-25T11:18:02;96968.86;;;7.87
47484;BMP280;54076;50.322;18.650;2023-04-25T11:23:04;96970.58;;;7.78
47484;BMP280;54076;50.322;18.650;2023-04-25T11:28:05;96975.29;;;7.44
47484;BMP280;54076;50.322;18.650;2023-04-25T11:33:06;96974.87;;;7.67
47484;BMP280;54076;50.322;18.650;2023-04-25T11:38:07;96972.29;;;7.25
47484;BMP280;54076;50.322;18.650;2023-04-25T11:43:09;96974.23;;;7.28
47484;BMP280;54076;50.322;18.650;2023-04-25T11:48:10;96980.81;;;7.51
47484;BMP280;54076;50.322;18.650;2023-04-25T11:53:11;96977.03;;;7.41
47484;BMP280;54076;50.322;18.650;2023-04-25T11:58:13;96976.88;;;7.75
47484;BMP280;54076;50.322;18.650;2023-04-25T12:03:14;96978.13;;;7.57
47484;BMP280;54076;50.322;18.650;2023-04-25T12:08:16;96973.12;;;7.51
47484;BMP280;54076;50.322;18.650;2023-04-25T12:13:23;96965.61;;;7.26
47484;BMP280;54076;50.322;18.650;2023-04-25T12:18:25;96963.63;;;7.42
47484;BMP280;54076;50.322;18.650;2023-04-25T12:23:29;96962.95;;;7.51
47484;BMP280;54076;50.322;18.650;2023-04-25T12:28:32;96966.85;;;7.30
47484;BMP280;54076;50.322;18.650;2023-04-25T12:33:36;96966.93;;;7.53
47484;BMP280;54076;50.322;18.650;2023-04-25T12:38:39;96963.73;;;7.55
47484;BMP280;54076;50.322;18.650;2023-04-25T12:43:41;96954.64;;;8.02
47484;BMP280;54076;50.322;18.650;2023-04-25T12:48:42;96957.25;;;7.98
47484;BMP280;54076;50.322;18.650;2023-04-25T12:53:43;96958.58;;;8.00
47484;BMP280;54076;50.322;18.650;2023-04-25T12:58:44;96957.02;;;7.78
47484;BMP280;54076;50.322;18.650;2023-04-25T13:03:45;96942.84;;;7.96
47484;BMP280;54076;50.322;18.650;2023-04-25T13:08:46;96946.02;;;7.77
47484;BMP280;54076;50.322;18.650;2023-04-25T13:13:47;96942.80;;;8.39
47484;BMP280;54076;50.322;18.650;2023-04-25T13:18:48;96938.83;;;8.87
47484;BMP280;54076;50.322;18.650;2023-04-25T13:23:49;96942.60;;;9.02
47484;BMP280;54076;50.322;18.650;2023-04-25T13:28:50;96943.83;;;9.03
47484;BMP280;54076;50.322;18.650;2023-04-25T13:33:51;96950.86;;;9.93
47484;BMP280;54076;50.322;18.650;2023-04-25T13:38:53;96947.09;;;10.47
47484;BMP280;54076;50.322;18.650;2023-04-25T13:43:55;96952.65;;;9.64
47484;BMP280;54076;50.322;18.650;2023-04-25T13:48:56;96941.23;;;9.00
47484;BMP280;54076;50.322;18.650;2023-04-25T13:53:57;96936.40;;;8.82
47484;BMP280;54076;50.322;18.650;2023-04-25T13:58:58;96939.65;;;8.82
47484;BMP280;54076;50.322;18.650;2023-04-25T14:03:59;96946.36;;;9.82
47484;BMP280;54076;50.322;18.650;2023-04-25T14:09:00;96946.08;;;9.55
47484;BMP280;54076;50.322;18.650;2023-04-25T14:14:05;96943.31;;;9.57
47484;BMP280;54076;50.322;18.650;2023-04-25T14:19:06;96942.74;;;9.56
47484;BMP280;54076;50.322;18.650;2023-04-25T14:24:08;96945.40;;;9.45
47484;BMP280;54076;50.322;18.650;2023-04-25T14:29:10;96942.31;;;9.28
47484;BMP280;54076;50.322;18.650;2023-04-25T14:34:12;96941.02;;;9.14
47484;BMP280;54076;50.322;18.650;2023-04-25T14:39:13;96940.51;;;8.57
47484;BMP280;54076;50.322;18.650;2023-04-25T14:44:15;96940.14;;;8.36
47484;BMP280;54076;50.322;18.650;2023-04-25T14:49:16;96944.55;;;8.72
47484;BMP280;54076;50.322;18.650;2023-04-25T14:54:17;96949.54;;;8.89
47484;BMP280;54076;50.322;18.650;2023-04-25T14:59:18;96952.89;;;9.58
47484;BMP280;54076;50.322;18.650;2023-04-25T15:04:20;96952.27;;;9.97
47484;BMP280;54076;50.322;18.650;2023-04-25T15:09:21;96952.34;;;9.99
47484;BMP280;54076;50.322;18.650;2023-04-25T15:14:24;96946.95;;;9.55
47484;BMP280;54076;50.322;18.650;2023-04-25T15:19:25;96950.48;;;9.26
47484;BMP280;54076;50.322;18.650;2023-04-25T15:24:26;96951.86;;;8.89
47484;BMP280;54076;50.322;18.650;2023-04-25T15:29:27;96958.05;;;9.58
47484;BMP280;54076;50.322;18.650;2023-04-25T15:34:29;96964.48;;;9.42
47484;BMP280;54076;50.322;18.650;2023-04-25T15:39:30;96970.09;;;9.66
47484;BMP280;54076;50.322;18.650;2023-04-25T15:44:31;96969.83;;;10.38
47484;BMP280;54076;50.322;18.650;2023-04-25T15:49:32;96974.10;;;10.83
47484;BMP280;54076;50.322;18.650;2023-04-25T15:54:33;96969.68;;;9.99
47484;BMP280;54076;50.322;18.650;2023-04-25T15:59:34;96974.48;;;9.75
47484;BMP280;54076;50.322;18.650;2023-04-25T16:04:35;96973.27;;;10.33
47484;BMP280;54076;50.322;18.650;2023-04-25T16:09:37;96971.59;;;10.13
47484;BMP280;54076;50.322;18.650;2023-04-25T16:14:38;96979.73;;;9.81
47484;BMP280;54076;50.322;18.650;2023-04-25T16:19:39;96977.93;;;9.16
47484;BMP280;54076;50.322;18.650;2023-04-25T16:24:42;96977.93;;;8.73
47484;BMP280;54076;50.322;18.650;2023-04-25T16:29:43;96974.84;;;8.31
47484;BMP280;54076;50.322;18.650;2023-04-25T16:34:44;96979.09;;;8.29
47484;BMP280;54076;50.322;18.650;2023-04-25T16:39:45;96986.18;;;8.48
47484;BMP280;54076;50.322;18.650;2023-04-25T16:44:47;96985.53;;;8.57
47484;BMP280;54076;50.322;18.650;2023-04-25T16:49:48;96982.25;;;8.29
47484;BMP280;54076;50.322;18.650;2023-04-25T16:54:49;96985.63;;;8.11
47484;BMP280;54076;50.322;18.650;2023-04-25T16:59:50;96991.11;;;7.90
47484;BMP280;54076;50.322;18.650;2023-04-25T17:04:51;96991.73;;;7.97
47484;BMP280;54076;50.322;18.650;2023-04-25T17:09:52;97004.68;;;7.86
47484;BMP280;54076;50.322;18.650;2023-04-25T17:14:53;97005.72;;;8.22
47484;BMP280;54076;50.322;18.650;2023-04-25T17:19:54;97022.66;;;9.99
47484;BMP280;54076;50.322;18.650;2023-04-25T17:24:55;97013.89;;;8.86
47484;BMP280;54076;50.322;18.650;2023-04-25T17:29:56;97017.57;;;7.74
47484;BMP280;54076;50.322;18.650;2023-04-25T17:34:57;97016.96;;;7.21
47484;BMP280;54076;50.322;18.650;2023-04-25T17:39:59;97023.79;;;6.89
47484;BMP280;54076;50.322;18.650;2023-04-25T17:45:01;97033.76;;;6.64
47484;BMP280;54076;50.322;18.650;2023-04-25T17:50:02;97046.12;;;6.46
47484;BMP280;54076;50.322;18.650;2023-04-25T17:55:05;97050.33;;;6.24
47484;BMP280;54076;50.322;18.650;2023-04-25T18:00:07;97064.98;;;6.14
47484;BMP280;54076;50.322;18.650;2023-04-25T18:05:08;97069.90;;;6.05
47484;BMP280;54076;50.322;18.650;2023-04-25T18:10:10;97073.62;;;6.04
47484;BMP280;54076;50.322;18.650;2023-04-25T18:15:11;97075.52;;;5.89
47484;BMP280;54076;50.322;18.650;2023-04-25T18:20:13;97085.95;;;5.76
47484;BMP280;54076;50.322;18.650;2023-04-25T18:25:15;97086.64;;;5.77
47484;BMP280;54076;50.322;18.650;2023-04-25T18:30:16;97094.80;;;5.63
47484;BMP280;54076;50.322;18.650;2023-04-25T18:35:17;97107.41;;;5.56
47484;BMP280;54076;50.322;18.650;2023-04-25T18:40:18;97118.60;;;5.49
47484;BMP280;54076;50.322;18.650;2023-04-25T18:45:19;97128.47;;;5.44
47484;BMP280;54076;50.322;18.650;2023-04-25T18:50:20;97129.83;;;5.39
47484;BMP280;54076;50.322;18.650;2023-04-25T18:55:23;97138.54;;;5.42
47484;BMP280;54076;50.322;18.650;2023-04-25T19:00:24;97146.30;;;5.39
47484;BMP280;54076;50.322;18.650;2023-04-25T19:05:25;97155.29;;;5.45
47484;BMP280;54076;50.322;18.650;2023-04-25T19:10:26;97161.96;;;5.43
47484;BMP280;54076;50.322;18.650;2023-04-25T19:15:28;97162.14;;;5.44
47484;BMP280;54076;50.322;18.650;2023-04-25T19:20:29;97164.41;;;5.29
47484;BMP280;54076;50.322;18.650;2023-04-25T19:25:31;97172.11;;;5.32
47484;BMP280;54076;50.322;18.650;2023-04-25T19:30:32;97182.64;;;5.26
47484;BMP280;54076;50.322;18.650;2023-04-25T19:35:33;97188.48;;;5.22
47484;BMP280;54076;50.322;18.650;2023-04-25T19:40:35;97198.02;;;5.11
47484;BMP280;54076;50.322;18.650;2023-04-25T19:45:36;97200.97;;;5.19
47484;BMP280;54076;50.322;18.650;2023-04-25T19:50:37;97207.70;;;5.22
47484;BMP280;54076;50.322;18.650;2023-04-25T19:55:38;97210.42;;;5.09
47484;BMP280;54076;50.322;18.650;2023-04-25T20:00:39;97209.15;;;5.16
47484;BMP280;54076;50.322;18.650;2023-04-25T20:05:40;97208.27;;;5.08
47484;BMP280;54076;50.322;18.650;2023-04-25T20:10:41;97213.34;;;4.89
47484;BMP280;54076;50.322;18.650;2023-04-25T20:15:42;97220.09;;;4.92
47484;BMP280;54076;50.322;18.650;2023-04-25T20:20:43;97228.41;;;4.97
47484;BMP280;54076;50.322;18.650;2023-04-25T20:25:44;97230.83;;;4.92
47484;BMP280;54076;50.322;18.650;2023-04-25T20:30:45;97233.48;;;4.88
47484;BMP280;54076;50.322;18.650;2023-04-25T20:35:47;97241.26;;;4.92
47484;BMP280;54076;50.322;18.650;2023-04-25T20:40:48;97245.20;;;4.75
47484;BMP280;54076;50.322;18.650;2023-04-25T20:45:50;97256.30;;;4.72
47484;BMP280;54076;50.322;18.650;2023-04-25T20:50:51;97256.36;;;4.64
47484;BMP280;54076;50.322;18.650;2023-04-25T20:55:52;97259.92;;;4.67
47484;BMP280;54076;50.322;18.650;2023-04-25T21:00:53;97256.40;;;4.52
47484;BMP280;54076;50.322;18.650;2023-04-25T21:05:56;97270.60;;;4.65
47484;BMP280;54076;50.322;18.650;2023-04-25T21:10:57;97270.44;;;4.53
47484;BMP280;54076;50.322;18.650;2023-04-25T21:15:58;97276.33;;;4.44
47484;BMP280;54076;50.322;18.650;2023-04-25T21:20:59;97280.48;;;4.46
47484;BMP280;54076;50.322;18.650;2023-04-25T21:26:03;97291.29;;;4.35
47484;BMP280;54076;50.322;18.650;2023-04-25T21:31:05;97284.20;;;4.11
47484;BMP280;54076;50.322;18.650;2023-04-25T21:36:06;97290.58;;;4.07
47484;BMP280;54076;50.322;18.650;2023-04-25T21:41:07;97293.75;;;3.97
47484;BMP280;54076;50.322;18.650;2023-04-25T21:46:10;97302.54;;;3.94
47484;BMP280;54076;50.322;18.650;2023-04-25T21:51:11;97298.83;;;3.89
47484;BMP280;54076;50.322;18.650;2023-04-25T21:56:11;97306.76;;;3.94
47484;BMP280;54076;50.322;18.650;2023-04-25T22:01:12;97306.28;;;3.97
47484;BMP280;54076;50.322;18.650;2023-04-25T22:06:15;97308.42;;;3.89
47484;BMP280;54076;50.322;18.650;2023-04-25T22:11:16;97314.46;;;3.78
47484;BMP280;54076;50.322;18.650;2023-04-25T22:16:17;97311.42;;;3.63
47484;BMP280;54076;50.322;18.650;2023-04-25T22:21:18;97312.83;;;3.56
47484;BMP280;54076;50.322;18.650;2023-04-25T22:26:19;97310.67;;;3.60
47484;BMP280;54076;50.322;18.650;2023-04-25T22:31:20;97317.06;;;3.48
47484;BMP280;54076;50.322;18.650;2023-04-25T22:36:21;97317.93;;;3.46
47484;BMP280;54076;50.322;18.650;2023-04-25T22:41:23;97321.65;;;3.35
47484;BMP280;54076;50.322;18.650;2023-04-25T22:46:24;97329.11;;;3.29
47484;BMP280;54076;50.322;18.650;2023-04-25T22:51:25;97332.09;;;3.35
47484;BMP280;54076;50.322;18.650;2023-04-25T22:56:29;97332.05;;;3.31
47484;BMP280;54076;50.322;18.650;2023-04-25T23:01:30;97333.01;;;3.27
47484;BMP280;54076;50.322;18.650;2023-04-25T23:06:31;97330.96;;;3.28
47484;BMP280;54076;50.322;18.650;2023-04-25T23:11:33;97336.86;;;3.33
47484;BMP280;54076;50.322;18.650;2023-04-25T23:16:34;97340.02;;;3.21
47484;BMP280;54076;50.322;18.650;2023-04-25T23:21:35;97343.49;;;3.32
47484;BMP280;54076;50.322;18.650;2023-04-25T23:26:36;97349.73;;;3.20
47484;BMP280;54076;50.322;18.650;2023-04-25T23:31:37;97355.11;;;3.24
47484;BMP280;54076;50.322;18.650;2023-04-25T23:36:38;97360.42;;;3.20
47484;BMP280;54076;50.322;18.650;2023-04-25T23:41:39;97361.71;;;3.13
47484;BMP280;54076;50.322;18.650;2023-04-25T23:46:40;97363.14;;;3.16
47484;BMP280;54076;50.322;18.650;2023-04-25T23:51:41;97367.94;;;3.12
47484;BMP280;54076;50.322;18.650;2023-04-25T23:56:42;97379.91;;;3.12
